sensor_id;sensor_type;location;lat;lon;timestamp;P1;durP1;ratioP1;P2;durP2;ratioP2
70707;SDS011;58277;47.316;18.908;2022-08-21T00:02:18;4.35;;;3.00;;
70707;SDS011;58277;47.316;18.908;2022-08-21T00:04:43;4.03;;;3.13;;
70707;SDS011;58277;47.316;18.908;2022-08-21T00:07:18;4.00;;;2.95;;
70707;SDS011;58277;47.316;18.908;2022-08-21T00:09:41;4.30;;;3.00;;
70707;SDS011;58277;47.316;18.908;2022-08-21T00:12:05;3.90;;;2.90;;
70707;SDS011;58277;47.316;18.908;2022-08-21T00:14:28;4.50;;;2.80;;
70707;SDS011;58277;47.316;18.908;2022-08-21T00:16:53;4.23;;;2.90;;
70707;SDS011;58277;47.316;18.908;2022-08-21T00:19:21;4.00;;;2.60;;
70707;SDS011;58277;47.316;18.908;2022-08-21T00:21:46;4.45;;;2.83;;
70707;SDS011;58277;47.316;18.908;2022-08-21T00:24:09;4.50;;;2.60;;
70707;SDS011;58277;47.316;18.908;2022-08-21T00:26:32;4.38;;;3.10;;
70707;SDS011;58277;47.316;18.908;2022-08-21T00:28:55;4.37;;;3.23;;
70707;SDS011;58277;47.316;18.908;2022-08-21T00:31:20;5.13;;;3.42;;
70707;SDS011;58277;47.316;18.908;2022-08-21T00:33:42;5.38;;;3.33;;
70707;SDS011;58277;47.316;18.908;2022-08-21T00:36:05;4.97;;;2.95;;
70707;SDS011;58277;47.316;18.908;2022-08-21T00:38:30;5.63;;;3.53;;
70707;SDS011;58277;47.316;18.908;2022-08-21T00:40:55;4.43;;;3.17;;
70707;SDS011;58277;47.316;18.908;2022-08-21T00:43:25;4.78;;;3.15;;
70707;SDS011;58277;47.316;18.908;2022-08-21T00:45:50;6.00;;;3.03;;
70707;SDS011;58277;47.316;18.908;2022-08-21T00:48:13;4.97;;;3.15;;
70707;SDS011;58277;47.316;18.908;2022-08-21T00:50:38;5.07;;;3.33;;
70707;SDS011;58277;47.316;18.908;2022-08-21T00:53:05;4.37;;;3.47;;
70707;SDS011;58277;47.316;18.908;2022-08-21T00:55:29;4.68;;;3.50;;
70707;SDS011;58277;47.316;18.908;2022-08-21T00:57:55;5.00;;;3.30;;
70707;SDS011;58277;47.316;18.908;2022-08-21T01:00:22;5.57;;;3.63;;
70707;SDS011;58277;47.316;18.908;2022-08-21T01:02:48;5.50;;;3.53;;
70707;SDS011;58277;47.316;18.908;2022-08-21T01:05:11;5.67;;;3.90;;
70707;SDS011;58277;47.316;18.908;2022-08-21T01:07:34;5.43;;;3.92;;
70707;SDS011;58277;47.316;18.908;2022-08-21T01:09:57;6.05;;;3.83;;
70707;SDS011;58277;47.316;18.908;2022-08-21T01:12:20;6.85;;;4.13;;
70707;SDS011;58277;47.316;18.908;2022-08-21T01:14:43;6.75;;;4.50;;
70707;SDS011;58277;47.316;18.908;2022-08-21T01:17:06;6.37;;;4.40;;
70707;SDS011;58277;47.316;18.908;2022-08-21T01:19:30;6.07;;;4.57;;
70707;SDS011;58277;47.316;18.908;2022-08-21T01:21:53;6.22;;;4.40;;
70707;SDS011;58277;47.316;18.908;2022-08-21T01:24:16;6.43;;;4.65;;
70707;SDS011;58277;47.316;18.908;2022-08-21T01:26:40;8.23;;;4.65;;
70707;SDS011;58277;47.316;18.908;2022-08-21T01:29:20;8.00;;;4.77;;
70707;SDS011;58277;47.316;18.908;2022-08-21T01:31:52;6.95;;;4.82;;
70707;SDS011;58277;47.316;18.908;2022-08-21T01:34:15;7.25;;;5.50;;
70707;SDS011;58277;47.316;18.908;2022-08-21T01:36:39;7.97;;;5.20;;
70707;SDS011;58277;47.316;18.908;2022-08-21T01:39:02;6.88;;;5.20;;
70707;SDS011;58277;47.316;18.908;2022-08-21T01:41:25;7.03;;;5.40;;
70707;SDS011;58277;47.316;18.908;2022-08-21T01:43:48;8.05;;;5.50;;
70707;SDS011;58277;47.316;18.908;2022-08-21T01:46:11;8.75;;;5.40;;
70707;SDS011;58277;47.316;18.908;2022-08-21T01:48:35;8.07;;;5.30;;
70707;SDS011;58277;47.316;18.908;2022-08-21T01:50:58;7.55;;;5.55;;
70707;SDS011;58277;47.316;18.908;2022-08-21T01:53:21;7.70;;;5.67;;
70707;SDS011;58277;47.316;18.908;2022-08-21T01:55:54;7.63;;;5.60;;
70707;SDS011;58277;47.316;18.908;2022-08-21T01:58:16;7.78;;;5.82;;
70707;SDS011;58277;47.316;18.908;2022-08-21T02:00:39;8.55;;;5.60;;
70707;SDS011;58277;47.316;18.908;2022-08-21T02:03:02;9.13;;;5.72;;
70707;SDS011;58277;47.316;18.908;2022-08-21T02:05:24;8.40;;;5.53;;
70707;SDS011;58277;47.316;18.908;2022-08-21T02:07:49;7.80;;;5.70;;
70707;SDS011;58277;47.316;18.908;2022-08-21T02:10:14;8.93;;;5.40;;
70707;SDS011;58277;47.316;18.908;2022-08-21T02:12:39;8.23;;;5.25;;
70707;SDS011;58277;47.316;18.908;2022-08-21T02:15:03;8.02;;;5.35;;
70707;SDS011;58277;47.316;18.908;2022-08-21T02:17:27;8.53;;;5.30;;
70707;SDS011;58277;47.316;18.908;2022-08-21T02:19:49;8.85;;;5.63;;
70707;SDS011;58277;47.316;18.908;2022-08-21T02:22:12;7.43;;;5.53;;
70707;SDS011;58277;47.316;18.908;2022-08-21T02:24:35;8.80;;;5.38;;
70707;SDS011;58277;47.316;18.908;2022-08-21T02:27:16;7.35;;;5.38;;
70707;SDS011;58277;47.316;18.908;2022-08-21T02:29:45;8.87;;;5.43;;
70707;SDS011;58277;47.316;18.908;2022-08-21T02:32:13;9.57;;;5.47;;
70707;SDS011;58277;47.316;18.908;2022-08-21T02:34:36;8.55;;;5.32;;
70707;SDS011;58277;47.316;18.908;2022-08-21T02:36:59;9.45;;;5.68;;
70707;SDS011;58277;47.316;18.908;2022-08-21T02:39:22;9.05;;;5.57;;
70707;SDS011;58277;47.316;18.908;2022-08-21T02:41:49;9.30;;;5.13;;
70707;SDS011;58277;47.316;18.908;2022-08-21T02:44:11;8.70;;;5.13;;
70707;SDS011;58277;47.316;18.908;2022-08-21T02:46:34;9.35;;;5.30;;
70707;SDS011;58277;47.316;18.908;2022-08-21T02:48:56;9.27;;;5.05;;
70707;SDS011;58277;47.316;18.908;2022-08-21T02:51:19;7.45;;;4.95;;
70707;SDS011;58277;47.316;18.908;2022-08-21T02:53:43;7.87;;;4.60;;
70707;SDS011;58277;47.316;18.908;2022-08-21T02:56:07;9.70;;;5.35;;
70707;SDS011;58277;47.316;18.908;2022-08-21T02:58:33;7.00;;;4.78;;
70707;SDS011;58277;47.316;18.908;2022-08-21T03:01:01;7.38;;;4.80;;
70707;SDS011;58277;47.316;18.908;2022-08-21T03:03:24;6.72;;;4.38;;
70707;SDS011;58277;47.316;18.908;2022-08-21T03:05:48;6.60;;;4.40;;
70707;SDS011;58277;47.316;18.908;2022-08-21T03:08:11;8.07;;;4.75;;
70707;SDS011;58277;47.316;18.908;2022-08-21T03:10:37;8.23;;;4.47;;
70707;SDS011;58277;47.316;18.908;2022-08-21T03:13:01;8.30;;;5.00;;
70707;SDS011;58277;47.316;18.908;2022-08-21T03:15:25;7.20;;;4.50;;
70707;SDS011;58277;47.316;18.908;2022-08-21T03:17:48;10.40;;;4.60;;
70707;SDS011;58277;47.316;18.908;2022-08-21T03:20:11;8.15;;;4.90;;
70707;SDS011;58277;47.316;18.908;2022-08-21T03:22:34;7.30;;;4.50;;
70707;SDS011;58277;47.316;18.908;2022-08-21T03:24:57;8.57;;;4.50;;
70707;SDS011;58277;47.316;18.908;2022-08-21T03:27:21;9.57;;;5.35;;
70707;SDS011;58277;47.316;18.908;2022-08-21T03:29:44;7.90;;;4.50;;
70707;SDS011;58277;47.316;18.908;2022-08-21T03:32:07;7.97;;;4.90;;
70707;SDS011;58277;47.316;18.908;2022-08-21T03:34:31;8.60;;;5.43;;
70707;SDS011;58277;47.316;18.908;2022-08-21T03:36:53;8.90;;;4.78;;
70707;SDS011;58277;47.316;18.908;2022-08-21T03:39:16;7.40;;;4.57;;
70707;SDS011;58277;47.316;18.908;2022-08-21T03:41:39;11.27;;;4.77;;
70707;SDS011;58277;47.316;18.908;2022-08-21T03:44:01;8.98;;;4.68;;
70707;SDS011;58277;47.316;18.908;2022-08-21T03:46:24;9.85;;;5.47;;
70707;SDS011;58277;47.316;18.908;2022-08-21T03:48:47;9.93;;;5.15;;
70707;SDS011;58277;47.316;18.908;2022-08-21T03:51:10;10.73;;;5.10;;
70707;SDS011;58277;47.316;18.908;2022-08-21T03:53:33;11.67;;;5.50;;
70707;SDS011;58277;47.316;18.908;2022-08-21T03:55:56;9.75;;;5.63;;
70707;SDS011;58277;47.316;18.908;2022-08-21T03:58:20;11.45;;;5.72;;
70707;SDS011;58277;47.316;18.908;2022-08-21T04:00:45;10.77;;;5.47;;
70707;SDS011;58277;47.316;18.908;2022-08-21T04:03:10;10.75;;;5.70;;
70707;SDS011;58277;47.316;18.908;2022-08-21T04:05:33;10.07;;;5.13;;
70707;SDS011;58277;47.316;18.908;2022-08-21T04:08:03;12.60;;;5.30;;
70707;SDS011;58277;47.316;18.908;2022-08-21T04:10:28;10.45;;;5.68;;
70707;SDS011;58277;47.316;18.908;2022-08-21T04:12:53;10.82;;;5.72;;
70707;SDS011;58277;47.316;18.908;2022-08-21T04:15:16;9.32;;;5.38;;
70707;SDS011;58277;47.316;18.908;2022-08-21T04:17:39;10.73;;;5.43;;
70707;SDS011;58277;47.316;18.908;2022-08-21T04:20:02;9.48;;;5.38;;
70707;SDS011;58277;47.316;18.908;2022-08-21T04:22:25;10.55;;;5.53;;
70707;SDS011;58277;47.316;18.908;2022-08-21T04:24:47;9.65;;;5.70;;
70707;SDS011;58277;47.316;18.908;2022-08-21T04:27:10;8.95;;;5.30;;
70707;SDS011;58277;47.316;18.908;2022-08-21T04:29:34;10.47;;;5.63;;
70707;SDS011;58277;47.316;18.908;2022-08-21T04:32:01;11.02;;;5.38;;
70707;SDS011;58277;47.316;18.908;2022-08-21T04:34:23;8.75;;;5.47;;
70707;SDS011;58277;47.316;18.908;2022-08-21T04:36:46;11.98;;;5.75;;
70707;SDS011;58277;47.316;18.908;2022-08-21T04:39:09;8.95;;;5.32;;
70707;SDS011;58277;47.316;18.908;2022-08-21T04:41:31;10.00;;;5.20;;
70707;SDS011;58277;47.316;18.908;2022-08-21T04:43:54;9.38;;;5.03;;
70707;SDS011;58277;47.316;18.908;2022-08-21T04:46:20;10.25;;;4.80;;
70707;SDS011;58277;47.316;18.908;2022-08-21T04:48:42;9.45;;;5.13;;
70707;SDS011;58277;47.316;18.908;2022-08-21T04:51:06;7.55;;;4.57;;
70707;SDS011;58277;47.316;18.908;2022-08-21T04:57:17;9.35;;;4.72;;
70707;SDS011;58277;47.316;18.908;2022-08-21T04:59:20;8.57;;;4.88;;
70707;SDS011;58277;47.316;18.908;2022-08-21T05:01:44;7.00;;;3.97;;
70707;SDS011;58277;47.316;18.908;2022-08-21T05:04:08;7.90;;;4.70;;
70707;SDS011;58277;47.316;18.908;2022-08-21T05:06:35;6.80;;;4.40;;
70707;SDS011;58277;47.316;18.908;2022-08-21T05:09:00;6.32;;;3.95;;
70707;SDS011;58277;47.316;18.908;2022-08-21T05:11:23;6.70;;;4.13;;
70707;SDS011;58277;47.316;18.908;2022-08-21T05:13:46;6.65;;;4.15;;
70707;SDS011;58277;47.316;18.908;2022-08-21T05:16:16;7.72;;;3.97;;
70707;SDS011;58277;47.316;18.908;2022-08-21T05:18:58;6.43;;;3.53;;
70707;SDS011;58277;47.316;18.908;2022-08-21T05:21:21;5.30;;;3.60;;
70707;SDS011;58277;47.316;18.908;2022-08-21T05:23:44;5.78;;;3.80;;
70707;SDS011;58277;47.316;18.908;2022-08-21T05:26:08;6.45;;;3.60;;
70707;SDS011;58277;47.316;18.908;2022-08-21T05:28:39;5.10;;;3.30;;
70707;SDS011;58277;47.316;18.908;2022-08-21T05:31:02;5.17;;;3.20;;
70707;SDS011;58277;47.316;18.908;2022-08-21T05:33:25;5.93;;;3.35;;
70707;SDS011;58277;47.316;18.908;2022-08-21T05:35:51;9.07;;;3.45;;
70707;SDS011;58277;47.316;18.908;2022-08-21T05:38:15;5.18;;;3.30;;
70707;SDS011;58277;47.316;18.908;2022-08-21T05:40:39;4.57;;;2.97;;
70707;SDS011;58277;47.316;18.908;2022-08-21T05:43:02;4.60;;;3.10;;
70707;SDS011;58277;47.316;18.908;2022-08-21T05:45:26;5.20;;;3.20;;
70707;SDS011;58277;47.316;18.908;2022-08-21T05:48:06;4.28;;;3.03;;
70707;SDS011;58277;47.316;18.908;2022-08-21T05:50:29;5.15;;;3.17;;
70707;SDS011;58277;47.316;18.908;2022-08-21T05:52:54;4.68;;;3.20;;
70707;SDS011;58277;47.316;18.908;2022-08-21T05:55:25;4.53;;;3.00;;
70707;SDS011;58277;47.316;18.908;2022-08-21T05:57:54;7.20;;;3.20;;
70707;SDS011;58277;47.316;18.908;2022-08-21T06:00:17;5.30;;;3.25;;
70707;SDS011;58277;47.316;18.908;2022-08-21T06:02:40;5.32;;;3.17;;
70707;SDS011;58277;47.316;18.908;2022-08-21T06:05:03;6.85;;;2.78;;
70707;SDS011;58277;47.316;18.908;2022-08-21T06:07:26;4.77;;;3.00;;
70707;SDS011;58277;47.316;18.908;2022-08-21T06:12:53;5.53;;;2.92;;
70707;SDS011;58277;47.316;18.908;2022-08-21T06:15:17;5.38;;;2.92;;
70707;SDS011;58277;47.316;18.908;2022-08-21T06:17:40;5.47;;;2.90;;
70707;SDS011;58277;47.316;18.908;2022-08-21T06:20:02;5.17;;;2.80;;
70707;SDS011;58277;47.316;18.908;2022-08-21T06:22:26;3.63;;;2.63;;
70707;SDS011;58277;47.316;18.908;2022-08-21T06:24:49;4.82;;;3.17;;
70707;SDS011;58277;47.316;18.908;2022-08-21T06:27:12;4.45;;;2.88;;
70707;SDS011;58277;47.316;18.908;2022-08-21T06:29:34;4.95;;;3.05;;
70707;SDS011;58277;47.316;18.908;2022-08-21T06:32:06;5.03;;;2.63;;
70707;SDS011;58277;47.316;18.908;2022-08-21T06:34:31;6.22;;;2.80;;
70707;SDS011;58277;47.316;18.908;2022-08-21T06:36:54;4.63;;;3.33;;
70707;SDS011;58277;47.316;18.908;2022-08-21T06:39:17;5.03;;;2.90;;
70707;SDS011;58277;47.316;18.908;2022-08-21T06:41:53;5.38;;;2.83;;
70707;SDS011;58277;47.316;18.908;2022-08-21T06:44:23;4.17;;;2.97;;
70707;SDS011;58277;47.316;18.908;2022-08-21T06:46:45;4.47;;;2.90;;
70707;SDS011;58277;47.316;18.908;2022-08-21T06:49:09;5.13;;;3.20;;
70707;SDS011;58277;47.316;18.908;2022-08-21T06:51:42;4.95;;;3.00;;
70707;SDS011;58277;47.316;18.908;2022-08-21T06:54:05;3.97;;;2.90;;
70707;SDS011;58277;47.316;18.908;2022-08-21T06:56:28;4.63;;;2.90;;
70707;SDS011;58277;47.316;18.908;2022-08-21T06:58:53;4.57;;;3.08;;
70707;SDS011;58277;47.316;18.908;2022-08-21T07:01:15;5.20;;;3.30;;
70707;SDS011;58277;47.316;18.908;2022-08-21T07:03:39;5.35;;;3.30;;
70707;SDS011;58277;47.316;18.908;2022-08-21T07:06:04;5.15;;;3.28;;
70707;SDS011;58277;47.316;18.908;2022-08-21T07:08:27;5.07;;;3.40;;
70707;SDS011;58277;47.316;18.908;2022-08-21T07:10:51;6.05;;;3.78;;
70707;SDS011;58277;47.316;18.908;2022-08-21T07:13:15;4.70;;;3.53;;
70707;SDS011;58277;47.316;18.908;2022-08-21T07:15:38;7.13;;;3.60;;
70707;SDS011;58277;47.316;18.908;2022-08-21T07:18:01;5.82;;;3.33;;
70707;SDS011;58277;47.316;18.908;2022-08-21T07:20:24;6.20;;;3.67;;
70707;SDS011;58277;47.316;18.908;2022-08-21T07:22:47;6.20;;;3.72;;
70707;SDS011;58277;47.316;18.908;2022-08-21T07:25:09;7.05;;;3.80;;
70707;SDS011;58277;47.316;18.908;2022-08-21T07:27:32;6.05;;;3.92;;
70707;SDS011;58277;47.316;18.908;2022-08-21T07:29:55;6.75;;;4.30;;
70707;SDS011;58277;47.316;18.908;2022-08-21T07:32:18;6.37;;;4.20;;
70707;SDS011;58277;47.316;18.908;2022-08-21T07:34:42;7.88;;;5.00;;
70707;SDS011;58277;47.316;18.908;2022-08-21T07:37:05;6.65;;;4.40;;
70707;SDS011;58277;47.316;18.908;2022-08-21T07:39:31;6.47;;;4.50;;
70707;SDS011;58277;47.316;18.908;2022-08-21T07:41:54;7.15;;;4.32;;
70707;SDS011;58277;47.316;18.908;2022-08-21T07:44:17;6.33;;;4.10;;
70707;SDS011;58277;47.316;18.908;2022-08-21T07:46:39;6.63;;;4.00;;
70707;SDS011;58277;47.316;18.908;2022-08-21T07:49:02;7.05;;;4.22;;
70707;SDS011;58277;47.316;18.908;2022-08-21T07:51:25;5.78;;;4.40;;
70707;SDS011;58277;47.316;18.908;2022-08-21T07:53:51;7.13;;;4.10;;
70707;SDS011;58277;47.316;18.908;2022-08-21T07:56:14;6.70;;;4.20;;
70707;SDS011;58277;47.316;18.908;2022-08-21T07:58:37;6.85;;;4.20;;
70707;SDS011;58277;47.316;18.908;2022-08-21T08:01:00;5.30;;;3.90;;
70707;SDS011;58277;47.316;18.908;2022-08-21T08:03:23;6.93;;;4.65;;
70707;SDS011;58277;47.316;18.908;2022-08-21T08:05:50;6.70;;;4.88;;
70707;SDS011;58277;47.316;18.908;2022-08-21T08:08:13;6.17;;;4.13;;
70707;SDS011;58277;47.316;18.908;2022-08-21T08:10:36;9.02;;;4.50;;
70707;SDS011;58277;47.316;18.908;2022-08-21T08:13:00;7.63;;;4.75;;
70707;SDS011;58277;47.316;18.908;2022-08-21T08:15:23;7.47;;;4.75;;
70707;SDS011;58277;47.316;18.908;2022-08-21T08:17:47;8.60;;;4.70;;
70707;SDS011;58277;47.316;18.908;2022-08-21T08:20:11;9.13;;;4.47;;
70707;SDS011;58277;47.316;18.908;2022-08-21T08:22:35;6.18;;;4.25;;
70707;SDS011;58277;47.316;18.908;2022-08-21T08:24:59;7.18;;;4.30;;
70707;SDS011;58277;47.316;18.908;2022-08-21T08:27:28;6.57;;;4.50;;
70707;SDS011;58277;47.316;18.908;2022-08-21T08:29:51;9.55;;;5.07;;
70707;SDS011;58277;47.316;18.908;2022-08-21T08:32:14;6.50;;;4.80;;
70707;SDS011;58277;47.316;18.908;2022-08-21T08:34:37;7.95;;;4.90;;
70707;SDS011;58277;47.316;18.908;2022-08-21T08:37:01;10.40;;;5.20;;
70707;SDS011;58277;47.316;18.908;2022-08-21T08:39:27;8.30;;;5.32;;
70707;SDS011;58277;47.316;18.908;2022-08-21T08:41:52;7.05;;;4.70;;
70707;SDS011;58277;47.316;18.908;2022-08-21T08:44:22;8.53;;;4.90;;
70707;SDS011;58277;47.316;18.908;2022-08-21T08:46:46;7.57;;;5.45;;
70707;SDS011;58277;47.316;18.908;2022-08-21T08:49:15;7.38;;;4.90;;
70707;SDS011;58277;47.316;18.908;2022-08-21T08:54:38;7.68;;;5.18;;
70707;SDS011;58277;47.316;18.908;2022-08-21T08:57:11;8.10;;;4.67;;
70707;SDS011;58277;47.316;18.908;2022-08-21T08:59:40;7.05;;;4.53;;
70707;SDS011;58277;47.316;18.908;2022-08-21T09:02:05;6.68;;;4.45;;
70707;SDS011;58277;47.316;18.908;2022-08-21T09:04:28;7.30;;;4.65;;
70707;SDS011;58277;47.316;18.908;2022-08-21T09:12:45;6.53;;;4.75;;
70707;SDS011;58277;47.316;18.908;2022-08-21T09:15:42;9.55;;;4.88;;
70707;SDS011;58277;47.316;18.908;2022-08-21T09:26:57;8.38;;;5.40;;
70707;SDS011;58277;47.316;18.908;2022-08-21T09:29:30;11.80;;;5.75;;
70707;SDS011;58277;47.316;18.908;2022-08-21T09:31:55;8.20;;;5.50;;
70707;SDS011;58277;47.316;18.908;2022-08-21T09:34:24;7.13;;;5.20;;
70707;SDS011;58277;47.316;18.908;2022-08-21T09:36:49;7.80;;;5.93;;
70707;SDS011;58277;47.316;18.908;2022-08-21T09:39:21;6.88;;;5.25;;
70707;SDS011;58277;47.316;18.908;2022-08-21T09:41:46;8.40;;;5.50;;
70707;SDS011;58277;47.316;18.908;2022-08-21T09:44:24;7.65;;;5.18;;
70707;SDS011;58277;47.316;18.908;2022-08-21T09:46:50;9.00;;;5.53;;
70707;SDS011;58277;47.316;18.908;2022-08-21T09:49:13;6.90;;;4.70;;
70707;SDS011;58277;47.316;18.908;2022-08-21T09:51:59;8.45;;;5.35;;
70707;SDS011;58277;47.316;18.908;2022-08-21T09:54:25;6.80;;;4.82;;
70707;SDS011;58277;47.316;18.908;2022-08-21T09:56:59;5.50;;;4.60;;
70707;SDS011;58277;47.316;18.908;2022-08-21T09:59:49;8.48;;;4.88;;
70707;SDS011;58277;47.316;18.908;2022-08-21T10:02:22;7.20;;;4.60;;
70707;SDS011;58277;47.316;18.908;2022-08-21T10:04:57;6.85;;;4.45;;
70707;SDS011;58277;47.316;18.908;2022-08-21T10:07:21;7.13;;;5.00;;
70707;SDS011;58277;47.316;18.908;2022-08-21T10:09:45;7.53;;;5.05;;
70707;SDS011;58277;47.316;18.908;2022-08-21T10:17:02;6.93;;;5.03;;
70707;SDS011;58277;47.316;18.908;2022-08-21T10:24:36;7.55;;;4.90;;
70707;SDS011;58277;47.316;18.908;2022-08-21T10:48:03;8.82;;;5.10;;
70707;SDS011;58277;47.316;18.908;2022-08-21T10:55:34;7.65;;;5.38;;
70707;SDS011;58277;47.316;18.908;2022-08-21T10:58:06;8.70;;;5.57;;
70707;SDS011;58277;47.316;18.908;2022-08-21T11:00:42;7.28;;;5.32;;
70707;SDS011;58277;47.316;18.908;2022-08-21T11:03:13;7.97;;;5.35;;
70707;SDS011;58277;47.316;18.908;2022-08-21T11:05:59;8.93;;;5.90;;
70707;SDS011;58277;47.316;18.908;2022-08-21T11:08:36;8.90;;;5.82;;
70707;SDS011;58277;47.316;18.908;2022-08-21T11:11:06;10.65;;;6.10;;
70707;SDS011;58277;47.316;18.908;2022-08-21T11:16:07;9.02;;;5.65;;
70707;SDS011;58277;47.316;18.908;2022-08-21T11:18:41;9.87;;;5.63;;
70707;SDS011;58277;47.316;18.908;2022-08-21T11:23:40;7.30;;;5.40;;
70707;SDS011;58277;47.316;18.908;2022-08-21T11:26:09;8.05;;;5.82;;
70707;SDS011;58277;47.316;18.908;2022-08-21T11:28:43;8.65;;;5.95;;
70707;SDS011;58277;47.316;18.908;2022-08-21T11:36:40;8.25;;;5.70;;
70707;SDS011;58277;47.316;18.908;2022-08-21T11:39:20;11.77;;;6.28;;
70707;SDS011;58277;47.316;18.908;2022-08-21T11:41:53;10.00;;;6.10;;
70707;SDS011;58277;47.316;18.908;2022-08-21T11:44:38;9.07;;;5.90;;
70707;SDS011;58277;47.316;18.908;2022-08-21T11:47:18;8.65;;;5.72;;
70707;SDS011;58277;47.316;18.908;2022-08-21T11:55:02;9.05;;;5.47;;
70707;SDS011;58277;47.316;18.908;2022-08-21T11:57:35;8.20;;;5.03;;
70707;SDS011;58277;47.316;18.908;2022-08-21T12:02:58;8.35;;;4.70;;
70707;SDS011;58277;47.316;18.908;2022-08-21T12:05:32;8.85;;;5.20;;
70707;SDS011;58277;47.316;18.908;2022-08-21T12:08:06;7.85;;;5.30;;
70707;SDS011;58277;47.316;18.908;2022-08-21T12:10:47;6.93;;;4.80;;
70707;SDS011;58277;47.316;18.908;2022-08-21T12:13:24;8.02;;;4.85;;
70707;SDS011;58277;47.316;18.908;2022-08-21T12:16:10;7.45;;;4.90;;
70707;SDS011;58277;47.316;18.908;2022-08-21T12:18:35;8.68;;;5.10;;
70707;SDS011;58277;47.316;18.908;2022-08-21T12:21:01;8.93;;;5.13;;
70707;SDS011;58277;47.316;18.908;2022-08-21T12:23:29;9.80;;;5.10;;
70707;SDS011;58277;47.316;18.908;2022-08-21T12:26:10;10.93;;;5.60;;
70707;SDS011;58277;47.316;18.908;2022-08-21T12:28:42;8.75;;;5.03;;
70707;SDS011;58277;47.316;18.908;2022-08-21T12:31:04;9.20;;;5.35;;
70707;SDS011;58277;47.316;18.908;2022-08-21T12:33:39;6.93;;;4.80;;
70707;SDS011;58277;47.316;18.908;2022-08-21T12:36:05;7.37;;;4.80;;
70707;SDS011;58277;47.316;18.908;2022-08-21T12:38:34;6.45;;;4.55;;
70707;SDS011;58277;47.316;18.908;2022-08-21T12:41:14;8.50;;;4.60;;
70707;SDS011;58277;47.316;18.908;2022-08-21T12:43:41;7.80;;;4.40;;
70707;SDS011;58277;47.316;18.908;2022-08-21T12:46:16;8.15;;;4.60;;
70707;SDS011;58277;47.316;18.908;2022-08-21T12:48:56;7.37;;;4.57;;
70707;SDS011;58277;47.316;18.908;2022-08-21T12:51:25;6.97;;;4.47;;
70707;SDS011;58277;47.316;18.908;2022-08-21T12:53:52;8.60;;;4.85;;
70707;SDS011;58277;47.316;18.908;2022-08-21T12:56:17;7.90;;;5.05;;
70707;SDS011;58277;47.316;18.908;2022-08-21T12:58:46;9.45;;;5.15;;
70707;SDS011;58277;47.316;18.908;2022-08-21T13:01:53;10.37;;;5.70;;
70707;SDS011;58277;47.316;18.908;2022-08-21T13:04:04;8.90;;;5.32;;
70707;SDS011;58277;47.316;18.908;2022-08-21T13:06:31;9.38;;;5.47;;
70707;SDS011;58277;47.316;18.908;2022-08-21T13:09:04;8.27;;;5.25;;
70707;SDS011;58277;47.316;18.908;2022-08-21T13:11:31;8.13;;;4.95;;
70707;SDS011;58277;47.316;18.908;2022-08-21T13:13:55;7.73;;;4.93;;
70707;SDS011;58277;47.316;18.908;2022-08-21T13:16:24;8.40;;;5.13;;
70707;SDS011;58277;47.316;18.908;2022-08-21T13:18:54;8.38;;;5.45;;
70707;SDS011;58277;47.316;18.908;2022-08-21T13:21:27;8.95;;;5.35;;
70707;SDS011;58277;47.316;18.908;2022-08-21T13:23:51;7.57;;;5.25;;
70707;SDS011;58277;47.316;18.908;2022-08-21T13:26:23;8.20;;;4.80;;
70707;SDS011;58277;47.316;18.908;2022-08-21T13:28:46;8.55;;;4.97;;
70707;SDS011;58277;47.316;18.908;2022-08-21T13:31:10;9.60;;;5.20;;
70707;SDS011;58277;47.316;18.908;2022-08-21T13:33:33;7.60;;;5.55;;
70707;SDS011;58277;47.316;18.908;2022-08-21T13:38:25;9.73;;;5.87;;
70707;SDS011;58277;47.316;18.908;2022-08-21T13:40:55;9.68;;;6.03;;
70707;SDS011;58277;47.316;18.908;2022-08-21T13:43:21;7.70;;;5.38;;
70707;SDS011;58277;47.316;18.908;2022-08-21T13:45:53;9.35;;;6.28;;
70707;SDS011;58277;47.316;18.908;2022-08-21T13:48:17;9.82;;;5.75;;
70707;SDS011;58277;47.316;18.908;2022-08-21T13:50:41;7.53;;;5.40;;
70707;SDS011;58277;47.316;18.908;2022-08-21T13:53:18;9.32;;;6.10;;
70707;SDS011;58277;47.316;18.908;2022-08-21T13:55:53;8.82;;;5.50;;
70707;SDS011;58277;47.316;18.908;2022-08-21T14:01:05;9.10;;;6.25;;
70707;SDS011;58277;47.316;18.908;2022-08-21T14:05:58;7.90;;;5.28;;
70707;SDS011;58277;47.316;18.908;2022-08-21T14:10:54;7.95;;;5.22;;
70707;SDS011;58277;47.316;18.908;2022-08-21T14:13:28;7.88;;;5.30;;
70707;SDS011;58277;47.316;18.908;2022-08-21T14:16:00;6.60;;;4.67;;
70707;SDS011;58277;47.316;18.908;2022-08-21T14:18:24;6.30;;;4.47;;
70707;SDS011;58277;47.316;18.908;2022-08-21T14:20:48;7.60;;;4.80;;
70707;SDS011;58277;47.316;18.908;2022-08-21T14:23:11;9.50;;;4.65;;
70707;SDS011;58277;47.316;18.908;2022-08-21T14:25:42;8.60;;;4.70;;
70707;SDS011;58277;47.316;18.908;2022-08-21T14:30:49;6.45;;;4.25;;
70707;SDS011;58277;47.316;18.908;2022-08-21T14:33:20;5.88;;;4.55;;
70707;SDS011;58277;47.316;18.908;2022-08-21T14:35:49;6.45;;;4.78;;
70707;SDS011;58277;47.316;18.908;2022-08-21T14:38:13;6.25;;;4.65;;
70707;SDS011;58277;47.316;18.908;2022-08-21T14:40:38;6.33;;;4.57;;
70707;SDS011;58277;47.316;18.908;2022-08-21T14:43:01;7.95;;;4.68;;
70707;SDS011;58277;47.316;18.908;2022-08-21T14:45:28;7.05;;;5.20;;
70707;SDS011;58277;47.316;18.908;2022-08-21T14:47:52;6.70;;;4.28;;
70707;SDS011;58277;47.316;18.908;2022-08-21T14:50:16;7.05;;;4.63;;
70707;SDS011;58277;47.316;18.908;2022-08-21T14:52:39;5.30;;;4.57;;
70707;SDS011;58277;47.316;18.908;2022-08-21T14:55:06;6.35;;;4.70;;
70707;SDS011;58277;47.316;18.908;2022-08-21T14:57:32;6.00;;;4.53;;
70707;SDS011;58277;47.316;18.908;2022-08-21T14:59:56;6.60;;;4.50;;
70707;SDS011;58277;47.316;18.908;2022-08-21T15:02:23;6.78;;;4.25;;
70707;SDS011;58277;47.316;18.908;2022-08-21T15:04:45;6.77;;;4.80;;
70707;SDS011;58277;47.316;18.908;2022-08-21T15:07:08;5.95;;;4.22;;
70707;SDS011;58277;47.316;18.908;2022-08-21T15:09:31;5.80;;;4.28;;
70707;SDS011;58277;47.316;18.908;2022-08-21T15:11:55;6.63;;;4.47;;
70707;SDS011;58277;47.316;18.908;2022-08-21T15:14:22;5.72;;;4.50;;
70707;SDS011;58277;47.316;18.908;2022-08-21T15:16:47;5.43;;;4.40;;
70707;SDS011;58277;47.316;18.908;2022-08-21T15:19:10;5.18;;;4.30;;
70707;SDS011;58277;47.316;18.908;2022-08-21T15:21:33;5.32;;;4.15;;
70707;SDS011;58277;47.316;18.908;2022-08-21T15:23:55;5.75;;;4.50;;
70707;SDS011;58277;47.316;18.908;2022-08-21T15:26:18;5.78;;;4.15;;
70707;SDS011;58277;47.316;18.908;2022-08-21T15:28:41;6.43;;;4.23;;
70707;SDS011;58277;47.316;18.908;2022-08-21T15:31:04;5.10;;;4.07;;
70707;SDS011;58277;47.316;18.908;2022-08-21T15:33:27;5.05;;;4.38;;
70707;SDS011;58277;47.316;18.908;2022-08-21T15:35:50;5.20;;;4.30;;
70707;SDS011;58277;47.316;18.908;2022-08-21T15:38:14;5.35;;;4.50;;
70707;SDS011;58277;47.316;18.908;2022-08-21T15:40:37;5.60;;;4.70;;
70707;SDS011;58277;47.316;18.908;2022-08-21T15:45:52;5.65;;;4.40;;
70707;SDS011;58277;47.316;18.908;2022-08-21T15:48:15;6.68;;;4.53;;
70707;SDS011;58277;47.316;18.908;2022-08-21T15:50:37;5.93;;;4.40;;
70707;SDS011;58277;47.316;18.908;2022-08-21T15:53:00;5.70;;;4.13;;
70707;SDS011;58277;47.316;18.908;2022-08-21T15:55:23;6.25;;;4.25;;
70707;SDS011;58277;47.316;18.908;2022-08-21T15:57:47;6.00;;;4.22;;
70707;SDS011;58277;47.316;18.908;2022-08-21T16:00:23;4.40;;;3.75;;
70707;SDS011;58277;47.316;18.908;2022-08-21T16:02:47;4.93;;;3.88;;